Terminal Aerodrome Forecast
Issued by NWS

Home | Current Version | Previous Version | Text Only | Print | Product List | Glossary On
Versions: 1 2 3 4 5 6 7 8 9 10 11 12 13 14 15 16 17 18 19 20 21 22 23 24 25 26 27 28 29 30 31 32 33 34 35 36 37 38 39 40 41 42
000
FTUS46 KOTX 302144 AAB
TAFPUW
TAF AMD
KPUW 302144Z 3022/3118 25014G21KT P6SM -SHRA SCT025 BKN040 OVC070
     FM302230 25017G25KT P6SM VCTS SCT050CB BKN070
     FM310030 24015G23KT P6SM SCT070
     FM310300 23008KT P6SM FEW070 SCT180
     FM311200 20008KT P6SM FEW030 BKN150=

USA.gov is the U.S. government's official web portal to all federal, state and local government web resources and services.